Time;durP1;ratioP1;P1;durP2;ratioP2;P2;SDS_P1;SDS_P2;PMS_P1;PMS_P2;Temp;Humidity;BMP_temperature;BMP_pressure;BME280_temperature;BME280_humidity;BME280_pressure;Samples;Min_cycle;Max_cycle;Signal;HPM_P1;HPM_P2
2023/07/07 00:01:04;;;;;;;7.38;5.13;;;;;;;26.17;34.94;100978.38;20991789;28;20052;-60
2023/07/07 00:11:06;;;;;;;7.55;5.05;;;;;;;26.18;36.22;100980.03;20999669;28;20060;-65
2023/07/07 00:21:07;;;;;;;8.57;5.38;;;;;;;26.10;35.04;100983.59;21007355;28;20082;-60
2023/07/07 00:31:08;;;;;;;6.60;4.50;;;;;;;25.98;35.68;100974.88;21007114;28;20090;-61
2023/07/07 00:41:10;;;;;;;7.38;4.97;;;;;;;26.21;36.58;101001.84;21005176;28;20051;-59
2023/07/07 00:51:21;;;;;;;7.57;5.10;;;;;;;26.21;36.61;101003.84;21004467;28;20071;-60
2023/07/07 01:01:22;;;;;;;6.70;4.80;;;;;;;26.22;38.25;101020.34;21003786;28;20418;-60
2023/07/07 01:11:24;;;;;;;7.88;4.53;;;;;;;26.12;36.83;101014.13;21028857;28;20052;-61
2023/07/07 01:21:36;;;;;;;5.82;4.78;;;;;;;26.23;36.33;101043.59;21002436;28;20094;-60
2023/07/07 01:31:44;;;;;;;6.30;5.05;;;;;;;26.24;36.56;101065.72;21057709;28;20048;-60
2023/07/07 01:42:10;;;;;;;5.63;4.53;;;;;;;26.22;36.28;101065.22;21070120;28;20423;-62
2023/07/07 01:52:16;;;;;;;4.82;4.35;;;;;;;26.24;36.74;101057.31;20999663;28;20032;-61
2023/07/07 02:02:24;;;;;;;5.80;4.40;;;;;;;26.21;37.40;101069.19;20999140;28;20028;-60
2023/07/07 02:12:26;;;;;;;5.35;4.70;;;;;;;26.25;37.75;101075.81;20998634;28;20052;-61
2023/07/07 02:22:30;;;;;;;5.85;4.57;;;;;;;26.25;37.74;101077.75;20997459;28;20044;-61
2023/07/07 02:32:31;;;;;;;5.22;4.47;;;;;;;26.24;36.28;101065.72;20995452;28;20044;-61
2023/07/07 02:42:32;;;;;;;5.25;4.50;;;;;;;26.23;36.08;101078.09;20996283;28;20101;-60
2023/07/07 02:52:34;;;;;;;4.70;4.28;;;;;;;26.22;36.03;101059.59;20994967;28;20045;-62
2023/07/07 03:02:35;;;;;;;5.97;5.07;;;;;;;26.24;35.77;101068.53;21024505;28;20548;-61
2023/07/07 03:12:37;;;;;;;4.97;4.50;;;;;;;26.26;36.17;101071.88;21066323;28;20048;-60
2023/07/07 03:22:39;;;;;;;5.13;4.57;;;;;;;26.23;36.25;101072.47;21057913;28;20048;-60
2023/07/07 03:32:40;;;;;;;5.88;5.28;;;;;;;26.27;36.65;101084.75;21041033;28;20867;-60
2023/07/07 03:42:44;;;;;;;5.90;5.30;;;;;;;26.21;37.28;101057.97;21047859;28;20553;-59
2023/07/07 03:52:45;;;;;;;13.80;5.00;;;;;;;26.30;38.11;101058.88;21042779;28;20399;-59
2023/07/07 04:02:47;;;;;;;10.93;6.15;;;;;;;26.39;37.97;101053.34;21015993;28;20131;-59
2023/07/07 04:12:48;;;;;;;8.00;5.03;;;;;;;26.37;37.84;101033.19;21055612;28;20051;-59
2023/07/07 04:22:52;;;;;;;6.07;4.68;;;;;;;26.26;36.95;101031.75;21065373;28;20414;-61
2023/07/07 04:32:59;;;;;;;8.40;4.90;;;;;;;26.33;35.94;101043.38;21066350;28;20048;-60
2023/07/07 04:43:03;;;;;;;5.10;4.60;;;;;;;26.31;36.36;101024.06;21055627;28;20075;-61
2023/07/07 04:53:04;;;;;;;8.63;5.03;;;;;;;26.31;37.09;101023.22;21075378;28;20078;-60
2023/07/07 05:03:06;;;;;;;6.00;5.10;;;;;;;26.23;36.32;101013.56;21083055;28;20044;-59
2023/07/07 05:13:07;;;;;;;6.75;4.90;;;;;;;26.32;35.67;101025.72;21073963;28;20047;-61
2023/07/07 05:23:09;;;;;;;5.13;4.63;;;;;;;26.30;36.28;101014.00;21078740;28;20094;-59
2023/07/07 05:33:14;;;;;;;5.05;4.40;;;;;;;26.29;36.15;101009.50;21080962;28;20043;-60
2023/07/07 05:43:17;;;;;;;5.88;4.28;;;;;;;26.30;37.05;101011.19;21082243;28;20043;-58
2023/07/07 05:53:19;;;;;;;5.47;4.53;;;;;;;26.29;36.29;101009.50;21065931;28;20216;-60
2023/07/07 06:03:20;;;;;;;8.15;4.93;;;;;;;26.27;36.00;100983.75;21079963;28;20101;-60
2023/07/07 06:13:24;;;;;;;5.35;4.75;;;;;;;26.29;35.23;100992.66;21071423;28;20036;-61
2023/07/07 06:23:27;;;;;;;7.47;4.72;;;;;;;26.28;35.03;100976.97;21079245;28;20082;-60
2023/07/07 06:33:29;;;;;;;5.25;4.75;;;;;;;26.30;35.36;100977.53;21070364;28;20117;-61
2023/07/07 06:43:33;;;;;;;5.43;4.25;;;;;;;26.29;36.11;100981.44;21076466;28;20055;-59
2023/07/07 06:53:34;;;;;;;5.47;4.68;;;;;;;26.23;36.74;100981.91;21045421;28;20559;-59
2023/07/07 07:03:36;;;;;;;5.00;3.95;;;;;;;26.26;36.10;100984.91;21057424;28;20040;-60
2023/07/07 07:13:37;;;;;;;5.00;4.50;;;;;;;26.23;35.18;100982.72;21072700;28;20048;-60
2023/07/07 07:23:38;;;;;;;4.78;4.03;;;;;;;26.25;35.40;100980.44;21060359;28;20040;-60
2023/07/07 07:33:39;;;;;;;5.95;4.00;;;;;;;26.26;35.27;100990.50;21072545;28;20055;-59
2023/07/07 07:43:41;;;;;;;9.07;4.18;;;;;;;26.27;35.61;100992.16;21062997;28;20040;-61
2023/07/07 07:53:42;;;;;;;6.32;4.07;;;;;;;26.26;35.52;100979.28;21064620;28;20101;-58
2023/07/07 08:03:44;;;;;;;5.50;4.38;;;;;;;26.26;36.01;100976.50;21064601;28;20056;-60
2023/07/07 08:13:45;;;;;;;4.80;4.25;;;;;;;26.21;36.32;100979.41;21070662;28;20040;-61
2023/07/07 08:23:49;;;;;;;13.13;4.72;;;;;;;26.19;35.36;100981.69;21068130;28;20510;-61
2023/07/07 08:33:51;;;;;;;6.05;4.03;;;;;;;26.22;35.19;100981.06;21080987;28;20512;-60
2023/07/07 08:44:20;;;;;;;7.60;4.47;;;;;;;26.16;35.05;100971.13;21083059;28;20483;-60
2023/07/07 08:54:50;;;;;;;5.95;4.50;;;;;;;26.22;35.20;100974.63;21083955;28;20052;-58
2023/07/07 09:05:12;;;;;;;6.22;4.35;;;;;;;26.21;35.50;100982.22;21044972;28;20049;-59
2023/07/07 09:15:29;;;;;;;5.38;4.32;;;;;;;26.17;36.07;100967.16;21081290;28;20462;-59
2023/07/07 09:25:39;;;;;;;5.68;4.40;;;;;;;26.18;36.50;100965.19;21079605;28;20066;-59
2023/07/07 09:35:47;;;;;;;5.30;4.50;;;;;;;26.15;35.58;100977.84;21042598;28;20048;-58
2023/07/07 09:46:03;;;;;;;4.82;3.97;;;;;;;26.16;36.50;100982.34;21078917;28;20036;-60
2023/07/07 09:56:17;;;;;;;4.70;4.13;;;;;;;26.09;35.54;100976.31;21080865;28;20106;-59
2023/07/07 10:06:54;;;;;;;4.18;3.78;;;;;;;26.08;35.39;100983.09;21075037;28;20440;-60
2023/07/07 10:17:07;;;;;;;4.95;4.40;;;;;;;26.12;34.79;100986.91;21054597;28;20048;-59
2023/07/07 10:27:16;;;;;;;6.10;4.57;;;;;;;26.05;34.63;100978.09;21075525;28;20093;-59
2023/07/07 10:37:20;;;;;;;5.80;4.88;;;;;;;26.02;34.73;100989.94;21050880;28;20487;-59
2023/07/07 10:47:29;;;;;;;5.30;4.80;;;;;;;26.10;35.08;101008.81;20995205;28;20391;-58
2023/07/07 10:57:48;;;;;;;15.65;5.28;;;;;;;26.09;36.21;101027.63;21052020;28;20036;-59
2023/07/07 11:08:12;;;;;;;6.35;4.43;;;;;;;26.07;36.92;101037.50;21074449;28;20040;-59
2023/07/07 11:18:41;;;;;;;6.00;4.95;;;;;;;26.06;35.71;101049.84;20993703;28;20442;-59
2023/07/07 11:29:07;;;;;;;6.82;5.05;;;;;;;26.02;35.07;101054.44;21037807;28;20436;-60
2023/07/07 11:39:32;;;;;;;5.90;4.47;;;;;;;26.00;34.67;101039.91;21033478;28;20054;-59
2023/07/07 11:49:48;;;;;;;5.43;4.90;;;;;;;26.02;35.17;101055.25;21072145;28;20533;-59
2023/07/07 12:00:20;;;;;;;5.97;5.20;;;;;;;25.97;35.00;101051.72;21072369;28;20082;-60
2023/07/07 12:10:26;;;;;;;5.93;4.85;;;;;;;26.02;35.45;101051.63;21084362;28;20627;-60
2023/07/07 12:20:33;;;;;;;5.60;4.97;;;;;;;25.99;36.25;101060.69;21073781;28;20449;-61
2023/07/07 12:30:46;;;;;;;7.30;5.32;;;;;;;25.80;35.99;101008.38;21076036;28;20262;-60
2023/07/07 12:40:48;;;;;;;7.13;6.20;;;;;;;25.97;35.73;101046.13;21076891;28;20114;-59
2023/07/07 12:50:49;;;;;;;6.90;5.45;;;;;;;25.99;35.45;101060.69;21086752;28;20036;-60
2023/07/07 13:01:09;;;;;;;8.07;5.65;;;;;;;25.92;35.82;101071.47;21088364;28;20109;-59
2023/07/07 13:11:35;;;;;;;8.63;6.18;;;;;;;25.91;36.28;101070.63;21079136;28;20082;-61
2023/07/07 13:21:37;;;;;;;7.88;5.40;;;;;;;25.95;36.29;101071.69;21059675;28;20036;-61
2023/07/07 13:31:41;;;;;;;6.25;5.15;;;;;;;25.95;36.68;101070.84;21068695;28;20507;-61
2023/07/07 13:41:46;;;;;;;7.95;5.90;;;;;;;25.91;36.85;101061.41;21072687;28;20059;-59
2023/07/07 13:51:54;;;;;;;9.40;6.18;;;;;;;25.90;35.33;101045.72;21076804;28;20055;-61
2023/07/07 14:01:57;;;;;;;10.70;6.25;;;;;;;25.93;36.01;101036.69;21070571;28;20066;-59
2023/07/07 14:12:01;;;;;;;9.00;6.15;;;;;;;25.94;36.60;101035.56;21059069;28;20032;-60
2023/07/07 14:22:05;;;;;;;9.38;6.20;;;;;;;25.93;37.42;101025.47;21059557;28;20040;-60
2023/07/07 14:32:14;;;;;;;9.40;5.75;;;;;;;25.94;36.82;101032.75;21070787;28;20375;-60
2023/07/07 14:42:23;;;;;;;14.65;6.90;;;;;;;25.95;36.53;101020.38;21057411;28;21812;-59
2023/07/07 14:52:44;;;;;;;9.88;6.13;;;;;;;25.92;37.18;101009.78;21063860;28;20059;-59
2023/07/07 15:02:46;;;;;;;11.15;6.45;;;;;;;25.96;37.53;101005.22;21046848;28;20095;-59
2023/07/07 15:12:48;;;;;;;16.67;6.82;;;;;;;25.96;35.71;101005.22;21064827;28;20051;-60
2023/07/07 15:22:49;;;;;;;13.25;6.50;;;;;;;25.84;35.02;100991.72;21068409;28;20032;-61
2023/07/07 15:32:50;;;;;;;15.00;6.07;;;;;;;25.91;35.58;101016.53;21072778;28;20137;-62
2023/07/07 15:42:55;;;;;;;11.68;6.38;;;;;;;25.86;34.66;100989.44;21066278;28;20040;-62
2023/07/07 15:52:56;;;;;;;9.65;5.85;;;;;;;25.92;35.55;100985.38;21063056;28;20052;-60
2023/07/07 16:02:58;;;;;;;9.10;6.18;;;;;;;25.93;35.42;100977.81;21049579;28;20040;-60
2023/07/07 16:13:03;;;;;;;8.88;6.05;;;;;;;25.92;36.32;100968.56;21065464;28;20048;-61
2023/07/07 16:23:04;;;;;;;10.23;6.78;;;;;;;25.96;35.95;100955.56;21052776;28;20036;-60
2023/07/07 16:33:05;;;;;;;8.43;6.30;;;;;;;25.90;34.95;100933.59;21057151;28;20049;-59
2023/07/07 16:43:07;;;;;;;7.22;6.25;;;;;;;25.85;34.53;100921.34;21028328;28;20040;-61
2023/07/07 16:53:08;;;;;;;7.10;6.18;;;;;;;25.83;34.41;100920.00;20997506;28;20404;-59
2023/07/07 17:03:11;;;;;;;8.60;6.68;;;;;;;25.78;34.29;100897.69;21004268;28;20542;-59
2023/07/07 17:13:12;;;;;;;7.10;6.35;;;;;;;25.76;34.24;100908.41;21003233;28;20040;-61
2023/07/07 17:23:14;;;;;;;6.78;6.00;;;;;;;25.64;34.27;100880.88;21002767;28;20442;-59
2023/07/07 17:33:15;;;;;;;7.38;6.55;;;;;;;25.75;34.17;100887.06;21001935;28;20475;-60
2023/07/07 17:43:16;;;;;;;6.40;5.80;;;;;;;25.73;33.97;100895.78;21033332;28;20051;-60
2023/07/07 17:53:18;;;;;;;14.52;7.20;;;;;;;25.72;34.65;100888.53;21059742;28;20573;-62
2023/07/07 18:03:22;;;;;;;10.52;6.70;;;;;;;25.72;35.14;100898.91;21064345;28;20033;-59
2023/07/07 18:13:23;;;;;;;13.27;6.93;;;;;;;25.79;35.29;100876.91;21074376;28;20040;-56
2023/07/07 18:23:27;;;;;;;10.32;6.85;;;;;;;25.84;35.26;100880.44;21079662;28;20039;-58
2023/07/07 18:33:29;;;;;;;9.50;7.18;;;;;;;25.83;34.98;100856.34;21078272;28;20040;-59
2023/07/07 18:43:30;;;;;;;11.55;6.47;;;;;;;25.89;35.04;100837.44;21077400;28;20032;-60
2023/07/07 18:53:31;;;;;;;8.95;7.20;;;;;;;25.89;35.06;100837.44;21070234;28;20106;-59
2023/07/07 19:03:33;;;;;;;9.70;6.75;;;;;;;25.94;35.15;100834.53;21066528;28;20093;-59
2023/07/07 19:13:34;;;;;;;7.57;6.32;;;;;;;25.94;35.19;100833.69;21072837;28;20387;-60
2023/07/07 19:23:35;;;;;;;8.23;6.68;;;;;;;25.86;35.09;100832.47;21040486;28;20037;-62
2023/07/07 19:33:36;;;;;;;8.88;6.63;;;;;;;25.94;34.97;100861.72;21062738;28;20047;-61
2023/07/07 19:43:40;;;;;;;9.50;6.32;;;;;;;25.91;34.44;100873.56;21064448;28;20129;-62
2023/07/07 19:53:41;;;;;;;8.10;6.20;;;;;;;25.88;34.52;100891.00;21069541;28;20044;-62
2023/07/07 20:03:44;;;;;;;7.53;6.05;;;;;;;25.87;34.53;100886.56;21057762;28;20032;-61
2023/07/07 20:13:45;;;;;;;6.60;6.00;;;;;;;25.84;34.33;100866.44;21065643;28;20556;-61
2023/07/07 20:23:48;;;;;;;9.93;6.35;;;;;;;25.73;35.54;100853.75;21061727;28;20075;-61
2023/07/07 20:33:50;;;;;;;13.88;6.03;;;;;;;25.92;35.73;100864.00;21053466;28;20580;-61
2023/07/07 20:43:55;;;;;;;8.68;5.97;;;;;;;25.98;35.79;100840.28;21074940;28;20028;-61
2023/07/07 20:53:56;;;;;;;7.80;5.78;;;;;;;25.84;35.81;100812.31;21081803;28;20044;-61
2023/07/07 21:03:58;;;;;;;7.35;5.85;;;;;;;25.96;36.44;100820.16;21069572;28;20048;-61
2023/07/07 21:14:01;;;;;;;6.95;5.82;;;;;;;25.95;35.90;100801.69;21060491;28;20065;-60
2023/07/07 21:24:02;;;;;;;6.25;5.65;;;;;;;25.95;35.31;100785.69;21069563;28;20032;-59
2023/07/07 21:34:03;;;;;;;6.85;5.40;;;;;;;25.95;35.05;100798.91;21072920;28;20055;-61
2023/07/07 21:44:05;;;;;;;5.65;5.05;;;;;;;25.97;35.21;100800.22;21076343;28;20082;-60
2023/07/07 21:54:06;;;;;;;5.75;5.15;;;;;;;25.77;34.30;100795.13;21043957;28;20136;-60
2023/07/07 22:04:07;;;;;;;4.85;4.43;;;;;;;25.95;35.12;100818.53;21065237;28;20065;-61
2023/07/07 22:14:09;;;;;;;5.63;4.97;;;;;;;25.89;34.18;100808.56;21063965;28;20047;-61
2023/07/07 22:24:11;;;;;;;5.80;5.20;;;;;;;25.90;35.14;100791.44;21055103;28;20340;-61
2023/07/07 22:34:15;;;;;;;5.78;4.90;;;;;;;25.86;34.30;100815.66;21071032;28;20043;-61
2023/07/07 22:44:17;;;;;;;6.10;5.10;;;;;;;25.90;34.68;100849.50;21053524;28;20391;-61
2023/07/07 22:54:18;;;;;;;5.78;4.72;;;;;;;25.92;35.28;100861.19;21052319;28;20052;-59
2023/07/07 23:04:25;;;;;;;6.28;5.00;;;;;;;25.87;35.39;100858.53;21040008;28;20111;-61
2023/07/07 23:14:26;;;;;;;6.70;5.03;;;;;;;25.91;34.65;100884.78;21000063;28;20044;-61
2023/07/07 23:24:28;;;;;;;5.00;4.50;;;;;;;25.88;35.01;100877.81;21005864;28;20101;-61
2023/07/07 23:34:29;;;;;;;7.68;5.53;;;;;;;25.91;34.89;100876.38;21076771;28;20048;-60
2023/07/07 23:44:30;;;;;;;5.38;4.75;;;;;;;25.83;34.90;100864.75;21029420;28;20049;-61
2023/07/07 23:54:32;;;;;;;5.95;5.20;;;;;;;25.90;33.89;100894.34;20992073;28;20476;-60
